sensor_id;sensor_type;location;lat;lon;timestamp;pressure;altitude;pressure_sealevel;temperature;humidity
59272;BME280;45043;51.068;7.026;2023-07-28T00:02:03;99493.00;;;13.92;79.62
59272;BME280;45043;51.068;7.026;2023-07-28T00:05:04;99500.44;;;13.90;79.65
59272;BME280;45043;51.068;7.026;2023-07-28T00:08:05;99495.34;;;13.88;79.60
59272;BME280;45043;51.068;7.026;2023-07-28T00:11:12;99492.69;;;13.88;79.53
59272;BME280;45043;51.068;7.026;2023-07-28T00:14:14;99497.03;;;13.94;79.51
59272;BME280;45043;51.068;7.026;2023-07-28T00:17:14;99485.88;;;13.97;79.29
59272;BME280;45043;51.068;7.026;2023-07-28T00:20:15;99492.03;;;13.98;79.32
59272;BME280;45043;51.068;7.026;2023-07-28T00:23:15;99496.56;;;13.97;79.49
59272;BME280;45043;51.068;7.026;2023-07-28T00:26:16;99494.13;;;13.96;79.63
59272;BME280;45043;51.068;7.026;2023-07-28T00:29:16;99491.69;;;13.94;79.61
59272;BME280;45043;51.068;7.026;2023-07-28T00:32:17;99486.34;;;13.94;79.54
59272;BME280;45043;51.068;7.026;2023-07-28T00:35:18;99488.00;;;13.95;79.95
59272;BME280;45043;51.068;7.026;2023-07-28T00:38:18;99495.41;;;13.93;79.47
59272;BME280;45043;51.068;7.026;2023-07-28T00:41:19;99486.34;;;13.94;79.35
59272;BME280;45043;51.068;7.026;2023-07-28T00:44:20;99493.34;;;13.95;79.65
59272;BME280;45043;51.068;7.026;2023-07-28T00:47:20;99492.19;;;13.91;79.41
59272;BME280;45043;51.068;7.026;2023-07-28T00:50:21;99480.94;;;13.89;79.43
59272;BME280;45043;51.068;7.026;2023-07-28T00:53:23;99482.56;;;13.90;79.77
59272;BME280;45043;51.068;7.026;2023-07-28T00:56:24;99483.94;;;13.93;79.55
59272;BME280;45043;51.068;7.026;2023-07-28T00:59:26;99487.16;;;13.95;79.50
59272;BME280;45043;51.068;7.026;2023-07-28T01:02:27;99486.88;;;13.91;79.35
59272;BME280;45043;51.068;7.026;2023-07-28T01:05:34;99496.47;;;13.92;79.87
59272;BME280;45043;51.068;7.026;2023-07-28T01:08:56;99484.75;;;13.93;79.44
59272;BME280;45043;51.068;7.026;2023-07-28T01:12:00;99484.75;;;13.93;79.47
59272;BME280;45043;51.068;7.026;2023-07-28T01:15:07;99489.28;;;13.93;79.55
59272;BME280;45043;51.068;7.026;2023-07-28T01:18:07;99484.75;;;13.93;79.71
59272;BME280;45043;51.068;7.026;2023-07-28T01:21:14;99483.47;;;13.96;79.58
59272;BME280;45043;51.068;7.026;2023-07-28T01:28:12;99476.31;;;14.01;79.71
59272;BME280;45043;51.068;7.026;2023-07-28T01:31:14;99484.34;;;14.01;79.53
59272;BME280;45043;51.068;7.026;2023-07-28T01:34:14;99476.81;;;13.98;79.83
59272;BME280;45043;51.068;7.026;2023-07-28T01:37:15;99474.38;;;13.97;79.67
59272;BME280;45043;51.068;7.026;2023-07-28T01:40:16;99475.19;;;13.97;79.88
59272;BME280;45043;51.068;7.026;2023-07-28T01:43:16;99478.94;;;13.96;80.24
59272;BME280;45043;51.068;7.026;2023-07-28T01:46:17;99479.97;;;13.95;79.97
59272;BME280;45043;51.068;7.026;2023-07-28T01:49:18;99482.66;;;13.95;80.44
59272;BME280;45043;51.068;7.026;2023-07-28T01:52:18;99478.34;;;13.94;80.53
59272;BME280;45043;51.068;7.026;2023-07-28T01:55:24;99473.25;;;13.93;80.79
59272;BME280;45043;51.068;7.026;2023-07-28T01:58:24;99473.50;;;13.91;80.21
59272;BME280;45043;51.068;7.026;2023-07-28T02:01:25;99471.31;;;13.88;80.97
59272;BME280;45043;51.068;7.026;2023-07-28T02:04:25;99469.34;;;13.83;80.34
59272;BME280;45043;51.068;7.026;2023-07-28T02:07:26;99464.28;;;13.82;81.38
59272;BME280;45043;51.068;7.026;2023-07-28T02:10:28;99458.94;;;13.82;81.44
59272;BME280;45043;51.068;7.026;2023-07-28T02:13:28;99455.94;;;13.78;81.69
59272;BME280;45043;51.068;7.026;2023-07-28T02:16:30;99464.19;;;13.77;81.78
59272;BME280;45043;51.068;7.026;2023-07-28T02:19:32;99469.53;;;13.77;81.84
59272;BME280;45043;51.068;7.026;2023-07-28T02:22:32;99474.31;;;13.75;82.46
59272;BME280;45043;51.068;7.026;2023-07-28T02:25:33;99467.81;;;13.71;82.56
59272;BME280;45043;51.068;7.026;2023-07-28T02:28:37;99470.94;;;13.68;83.11
59272;BME280;45043;51.068;7.026;2023-07-28T02:31:38;99470.41;;;13.66;83.31
59272;BME280;45043;51.068;7.026;2023-07-28T02:34:39;99468.19;;;13.62;83.62
59272;BME280;45043;51.068;7.026;2023-07-28T02:37:40;99476.22;;;13.62;83.96
59272;BME280;45043;51.068;7.026;2023-07-28T02:40:40;99478.88;;;13.62;84.18
59272;BME280;45043;51.068;7.026;2023-07-28T02:43:40;99478.63;;;13.64;84.21
59272;BME280;45043;51.068;7.026;2023-07-28T02:46:41;99481.28;;;13.64;84.77
59272;BME280;45043;51.068;7.026;2023-07-28T02:49:41;99472.00;;;13.67;84.59
59272;BME280;45043;51.068;7.026;2023-07-28T02:52:43;99475.22;;;13.69;84.65
59272;BME280;45043;51.068;7.026;2023-07-28T02:55:44;99479.31;;;13.71;84.62
59272;BME280;45043;51.068;7.026;2023-07-28T02:58:46;99485.34;;;13.67;84.72
59272;BME280;45043;51.068;7.026;2023-07-28T03:01:48;99482.09;;;13.65;84.81
59272;BME280;45043;51.068;7.026;2023-07-28T03:04:49;99482.59;;;13.61;84.97
59272;BME280;45043;51.068;7.026;2023-07-28T03:07:58;99491.88;;;13.59;85.36
59272;BME280;45043;51.068;7.026;2023-07-28T03:10:59;99489.44;;;13.57;85.62
59272;BME280;45043;51.068;7.026;2023-07-28T03:14:02;99482.28;;;13.58;85.65
59272;BME280;45043;51.068;7.026;2023-07-28T03:17:03;99492.13;;;13.57;85.91
59272;BME280;45043;51.068;7.026;2023-07-28T03:20:04;99484.69;;;13.59;85.89
59272;BME280;45043;51.068;7.026;2023-07-28T03:23:05;99480.41;;;13.58;86.14
59272;BME280;45043;51.068;7.026;2023-07-28T03:26:06;99487.81;;;13.56;86.52
59272;BME280;45043;51.068;7.026;2023-07-28T03:29:06;99488.63;;;13.57;86.41
59272;BME280;45043;51.068;7.026;2023-07-28T03:32:07;99487.59;;;13.58;86.48
59272;BME280;45043;51.068;7.026;2023-07-28T03:35:08;99492.94;;;13.58;86.54
59272;BME280;45043;51.068;7.026;2023-07-28T03:38:14;99494.56;;;13.59;86.68
59272;BME280;45043;51.068;7.026;2023-07-28T03:41:15;99495.84;;;13.56;86.76
59272;BME280;45043;51.068;7.026;2023-07-28T03:44:16;99488.63;;;13.57;86.83
59272;BME280;45043;51.068;7.026;2023-07-28T03:47:17;99489.22;;;13.59;86.75
59272;BME280;45043;51.068;7.026;2023-07-28T03:50:18;99499.16;;;13.63;87.00
59272;BME280;45043;51.068;7.026;2023-07-28T03:53:19;99508.78;;;13.65;87.02
59272;BME280;45043;51.068;7.026;2023-07-28T03:56:20;99505.09;;;13.66;86.98
59272;BME280;45043;51.068;7.026;2023-07-28T03:59:20;99497.63;;;13.68;86.84
59272;BME280;45043;51.068;7.026;2023-07-28T04:02:20;99495.31;;;13.71;87.10
59272;BME280;45043;51.068;7.026;2023-07-28T04:05:21;99496.56;;;13.69;86.90
59272;BME280;45043;51.068;7.026;2023-07-28T04:08:21;99494.75;;;13.69;86.77
59272;BME280;45043;51.068;7.026;2023-07-28T04:11:22;99489.19;;;13.71;86.81
59272;BME280;45043;51.068;7.026;2023-07-28T04:14:22;99490.31;;;13.75;86.87
59272;BME280;45043;51.068;7.026;2023-07-28T04:17:23;99492.97;;;13.75;87.23
59272;BME280;45043;51.068;7.026;2023-07-28T04:20:23;99496.72;;;13.74;87.03
59272;BME280;45043;51.068;7.026;2023-07-28T04:23:23;99494.13;;;13.79;87.18
59272;BME280;45043;51.068;7.026;2023-07-28T04:26:24;99501.25;;;13.90;86.60
59272;BME280;45043;51.068;7.026;2023-07-28T04:29:31;99494.47;;;13.99;86.16
59272;BME280;45043;51.068;7.026;2023-07-28T04:32:33;99499.94;;;14.09;85.48
59272;BME280;45043;51.068;7.026;2023-07-28T04:35:40;99506.75;;;14.17;84.51
59272;BME280;45043;51.068;7.026;2023-07-28T04:38:49;99513.03;;;14.28;83.97
59272;BME280;45043;51.068;7.026;2023-07-28T04:41:50;99512.06;;;14.34;83.75
59272;BME280;45043;51.068;7.026;2023-07-28T04:44:51;99508.66;;;14.39;83.08
59272;BME280;45043;51.068;7.026;2023-07-28T04:47:53;99513.63;;;14.47;82.44
59272;BME280;45043;51.068;7.026;2023-07-28T04:50:54;99516.66;;;14.55;82.13
59272;BME280;45043;51.068;7.026;2023-07-28T04:54:30;99515.91;;;14.60;81.77
59272;BME280;45043;51.068;7.026;2023-07-28T04:57:30;99519.53;;;14.66;80.71
59272;BME280;45043;51.068;7.026;2023-07-28T05:00:31;99520.06;;;14.68;80.63
59272;BME280;45043;51.068;7.026;2023-07-28T05:03:31;99530.84;;;14.73;80.22
59272;BME280;45043;51.068;7.026;2023-07-28T05:06:40;99518.28;;;14.73;79.69
59272;BME280;45043;51.068;7.026;2023-07-28T05:09:40;99530.59;;;14.74;80.28
59272;BME280;45043;51.068;7.026;2023-07-28T05:12:41;99531.97;;;14.77;80.04
59272;BME280;45043;51.068;7.026;2023-07-28T05:15:42;99529.34;;;14.82;79.64
59272;BME280;45043;51.068;7.026;2023-07-28T05:18:48;99528.06;;;14.85;79.27
59272;BME280;45043;51.068;7.026;2023-07-28T05:22:20;99529.09;;;14.83;79.46
59272;BME280;45043;51.068;7.026;2023-07-28T05:25:25;99526.19;;;14.85;79.65
59272;BME280;45043;51.068;7.026;2023-07-28T05:28:25;99539.88;;;14.89;79.22
59272;BME280;45043;51.068;7.026;2023-07-28T05:31:29;99542.28;;;14.90;79.11
59272;BME280;45043;51.068;7.026;2023-07-28T05:34:30;99540.41;;;14.91;79.21
59272;BME280;45043;51.068;7.026;2023-07-28T05:37:30;99547.13;;;14.93;79.16
59272;BME280;45043;51.068;7.026;2023-07-28T05:40:31;99543.72;;;14.98;79.17
59272;BME280;45043;51.068;7.026;2023-07-28T05:43:31;99550.94;;;14.97;78.82
59272;BME280;45043;51.068;7.026;2023-07-28T05:46:33;99553.88;;;14.96;79.04
59272;BME280;45043;51.068;7.026;2023-07-28T05:49:34;99557.34;;;14.96;79.11
59272;BME280;45043;51.068;7.026;2023-07-28T05:52:34;99559.28;;;15.01;79.19
59272;BME280;45043;51.068;7.026;2023-07-28T05:55:35;99554.25;;;15.04;79.21
59272;BME280;45043;51.068;7.026;2023-07-28T05:58:35;99560.16;;;15.06;79.12
59272;BME280;45043;51.068;7.026;2023-07-28T06:01:36;99564.94;;;15.04;78.95
59272;BME280;45043;51.068;7.026;2023-07-28T06:04:55;99566.00;;;15.03;78.85
59272;BME280;45043;51.068;7.026;2023-07-28T06:07:55;99570.06;;;15.06;78.76
59272;BME280;45043;51.068;7.026;2023-07-28T06:10:56;99576.84;;;15.14;78.83
59272;BME280;45043;51.068;7.026;2023-07-28T06:13:56;99572.03;;;15.16;78.34
59272;BME280;45043;51.068;7.026;2023-07-28T06:16:58;99573.41;;;15.18;78.51
59272;BME280;45043;51.068;7.026;2023-07-28T06:20:03;99568.91;;;15.24;78.13
59272;BME280;45043;51.068;7.026;2023-07-28T06:23:04;99576.63;;;15.20;78.45
59272;BME280;45043;51.068;7.026;2023-07-28T06:26:05;99577.69;;;15.19;78.53
59272;BME280;45043;51.068;7.026;2023-07-28T06:29:06;99583.03;;;15.19;78.39
59272;BME280;45043;51.068;7.026;2023-07-28T06:32:07;99581.19;;;15.20;77.92
59272;BME280;45043;51.068;7.026;2023-07-28T06:35:08;99592.44;;;15.22;77.94
59272;BME280;45043;51.068;7.026;2023-07-28T06:38:09;99587.34;;;15.20;78.61
59272;BME280;45043;51.068;7.026;2023-07-28T06:41:10;99599.91;;;15.20;78.25
59272;BME280;45043;51.068;7.026;2023-07-28T06:44:10;99599.91;;;15.20;78.59
59272;BME280;45043;51.068;7.026;2023-07-28T06:47:11;99602.34;;;15.21;78.10
59272;BME280;45043;51.068;7.026;2023-07-28T06:50:12;99605.25;;;15.20;78.55
59272;BME280;45043;51.068;7.026;2023-07-28T06:53:13;99603.38;;;15.20;77.83
59272;BME280;45043;51.068;7.026;2023-07-28T06:56:13;99618.72;;;15.25;78.39
59272;BME280;45043;51.068;7.026;2023-07-28T06:59:14;99614.97;;;15.26;78.02
59272;BME280;45043;51.068;7.026;2023-07-28T07:02:14;99621.44;;;15.30;78.30
59272;BME280;45043;51.068;7.026;2023-07-28T07:05:16;99628.19;;;15.33;78.27
59272;BME280;45043;51.068;7.026;2023-07-28T07:08:16;99630.84;;;15.33;78.15
59272;BME280;45043;51.068;7.026;2023-07-28T07:11:17;99630.28;;;15.30;78.02
59272;BME280;45043;51.068;7.026;2023-07-28T07:14:17;99642.38;;;15.33;78.02
59272;BME280;45043;51.068;7.026;2023-07-28T07:17:19;99639.91;;;15.31;77.80
59272;BME280;45043;51.068;7.026;2023-07-28T07:20:19;99642.38;;;15.33;78.15
59272;BME280;45043;51.068;7.026;2023-07-28T07:23:20;99647.78;;;15.38;77.68
59272;BME280;45043;51.068;7.026;2023-07-28T07:26:20;99639.50;;;15.40;77.42
59272;BME280;45043;51.068;7.026;2023-07-28T07:29:21;99641.34;;;15.39;77.59
59272;BME280;45043;51.068;7.026;2023-07-28T07:32:21;99643.00;;;15.40;77.43
59272;BME280;45043;51.068;7.026;2023-07-28T07:35:22;99646.22;;;15.42;77.70
59272;BME280;45043;51.068;7.026;2023-07-28T07:38:23;99644.09;;;15.44;77.33
59272;BME280;45043;51.068;7.026;2023-07-28T07:41:23;99655.94;;;15.48;77.21
59272;BME280;45043;51.068;7.026;2023-07-28T07:44:24;99648.97;;;15.47;77.23
59272;BME280;45043;51.068;7.026;2023-07-28T07:47:24;99661.72;;;15.40;77.92
59272;BME280;45043;51.068;7.026;2023-07-28T07:50:25;99666.00;;;15.41;78.02
59272;BME280;45043;51.068;7.026;2023-07-28T07:53:25;99668.13;;;15.39;77.80
59272;BME280;45043;51.068;7.026;2023-07-28T07:56:26;99661.91;;;15.34;78.09
59272;BME280;45043;51.068;7.026;2023-07-28T07:59:26;99667.00;;;15.35;78.20
59272;BME280;45043;51.068;7.026;2023-07-28T08:02:31;99666.19;;;15.35;78.23
59272;BME280;45043;51.068;7.026;2023-07-28T08:05:31;99668.38;;;15.38;78.42
59272;BME280;45043;51.068;7.026;2023-07-28T08:08:32;99671.84;;;15.38;78.09
59272;BME280;45043;51.068;7.026;2023-07-28T08:11:32;99675.91;;;15.41;78.77
59272;BME280;45043;51.068;7.026;2023-07-28T08:14:33;99672.50;;;15.45;78.64
59272;BME280;45043;51.068;7.026;2023-07-28T08:17:33;99684.00;;;15.46;78.00
59272;BME280;45043;51.068;7.026;2023-07-28T08:20:34;99681.09;;;15.47;77.94
59272;BME280;45043;51.068;7.026;2023-07-28T08:23:34;99693.66;;;15.47;77.86
59272;BME280;45043;51.068;7.026;2023-07-28T08:26:35;99686.44;;;15.47;78.05
59272;BME280;45043;51.068;7.026;2023-07-28T08:29:35;99703.06;;;15.49;77.74
59272;BME280;45043;51.068;7.026;2023-07-28T08:32:36;99695.06;;;15.49;77.45
59272;BME280;45043;51.068;7.026;2023-07-28T08:35:36;99692.38;;;15.49;77.46
59272;BME280;45043;51.068;7.026;2023-07-28T08:38:37;99690.31;;;15.57;77.41
59272;BME280;45043;51.068;7.026;2023-07-28T08:41:38;99686.72;;;15.68;77.69
59272;BME280;45043;51.068;7.026;2023-07-28T08:44:39;99696.25;;;15.81;77.04
59272;BME280;45043;51.068;7.026;2023-07-28T08:47:40;99697.69;;;15.88;76.98
59272;BME280;45043;51.068;7.026;2023-07-28T08:50:40;99697.19;;;15.91;76.56
59272;BME280;45043;51.068;7.026;2023-07-28T08:53:41;99696.44;;;15.96;76.42
59272;BME280;45043;51.068;7.026;2023-07-28T08:56:45;99700.53;;;16.03;75.86
59272;BME280;45043;51.068;7.026;2023-07-28T08:59:45;99697.34;;;16.07;75.75
59272;BME280;45043;51.068;7.026;2023-07-28T09:02:49;99703.88;;;16.16;75.29
59272;BME280;45043;51.068;7.026;2023-07-28T09:05:50;99697.38;;;16.34;74.82
59272;BME280;45043;51.068;7.026;2023-07-28T09:08:51;99704.03;;;16.58;74.54
59272;BME280;45043;51.068;7.026;2023-07-28T09:11:53;99697.72;;;16.74;73.09
59272;BME280;45043;51.068;7.026;2023-07-28T09:14:57;99693.44;;;17.11;72.47
59272;BME280;45043;51.068;7.026;2023-07-28T09:18:00;99692.88;;;17.51;70.86
59272;BME280;45043;51.068;7.026;2023-07-28T09:21:00;99696.50;;;17.87;69.65
59272;BME280;45043;51.068;7.026;2023-07-28T09:24:03;99693.91;;;18.03;68.42
59272;BME280;45043;51.068;7.026;2023-07-28T09:27:04;99692.56;;;18.05;67.72
59272;BME280;45043;51.068;7.026;2023-07-28T09:30:07;99691.75;;;18.00;67.73
59272;BME280;45043;51.068;7.026;2023-07-28T09:33:08;99689.06;;;18.00;67.23
59272;BME280;45043;51.068;7.026;2023-07-28T09:36:10;99690.13;;;17.93;67.63
59272;BME280;45043;51.068;7.026;2023-07-28T09:39:11;99690.03;;;17.83;67.65
59272;BME280;45043;51.068;7.026;2023-07-28T09:42:13;99692.69;;;17.68;67.31
59272;BME280;45043;51.068;7.026;2023-07-28T09:45:14;99697.44;;;17.51;67.95
59272;BME280;45043;51.068;7.026;2023-07-28T09:48:15;99694.44;;;17.42;67.83
59272;BME280;45043;51.068;7.026;2023-07-28T09:51:18;99698.69;;;17.33;67.76
59272;BME280;45043;51.068;7.026;2023-07-28T09:54:28;99696.19;;;17.21;68.36
59272;BME280;45043;51.068;7.026;2023-07-28T09:57:33;99706.41;;;17.19;68.39
59272;BME280;45043;51.068;7.026;2023-07-28T10:00:36;99691.28;;;17.13;68.94
59272;BME280;45043;51.068;7.026;2023-07-28T10:03:37;99707.38;;;17.13;68.54
59272;BME280;45043;51.068;7.026;2023-07-28T10:06:38;99704.22;;;17.16;68.68
59272;BME280;45043;51.068;7.026;2023-07-28T10:09:39;99699.72;;;17.27;68.68
59272;BME280;45043;51.068;7.026;2023-07-28T10:15:42;99704.16;;;17.48;68.06
59272;BME280;45043;51.068;7.026;2023-07-28T10:18:53;99699.63;;;17.59;67.61
59272;BME280;45043;51.068;7.026;2023-07-28T10:22:01;99694.03;;;17.70;67.29
59272;BME280;45043;51.068;7.026;2023-07-28T10:25:02;99697.59;;;17.86;67.21
59272;BME280;45043;51.068;7.026;2023-07-28T10:28:05;99702.75;;;17.93;66.59
59272;BME280;45043;51.068;7.026;2023-07-28T10:31:07;99699.25;;;17.92;66.62
59272;BME280;45043;51.068;7.026;2023-07-28T10:34:11;99708.88;;;17.88;66.41
59272;BME280;45043;51.068;7.026;2023-07-28T10:37:14;99712.63;;;17.87;66.16
59272;BME280;45043;51.068;7.026;2023-07-28T10:43:24;99722.28;;;17.83;67.11
59272;BME280;45043;51.068;7.026;2023-07-28T10:46:26;99713.03;;;17.54;68.40
59272;BME280;45043;51.068;7.026;2023-07-28T10:49:28;99726.31;;;17.28;68.87
59272;BME280;45043;51.068;7.026;2023-07-28T10:52:28;99737.00;;;17.23;70.17
59272;BME280;45043;51.068;7.026;2023-07-28T10:55:30;99739.19;;;17.26;70.51
59272;BME280;45043;51.068;7.026;2023-07-28T10:58:34;99729.84;;;17.34;70.79
59272;BME280;45043;51.068;7.026;2023-07-28T11:01:40;99728.09;;;17.60;70.40
59272;BME280;45043;51.068;7.026;2023-07-28T11:04:45;99730.69;;;17.92;69.96
59272;BME280;45043;51.068;7.026;2023-07-28T11:07:47;99729.97;;;18.32;68.94
59272;BME280;45043;51.068;7.026;2023-07-28T11:10:48;99724.44;;;18.70;67.89
59272;BME280;45043;51.068;7.026;2023-07-28T11:13:49;99718.50;;;18.88;67.19
59272;BME280;45043;51.068;7.026;2023-07-28T11:16:49;99713.91;;;18.94;66.61
59272;BME280;45043;51.068;7.026;2023-07-28T11:19:50;99717.16;;;18.96;66.47
59272;BME280;45043;51.068;7.026;2023-07-28T11:25:54;99704.41;;;19.32;65.19
59272;BME280;45043;51.068;7.026;2023-07-28T11:28:55;99707.66;;;19.44;64.44
59272;BME280;45043;51.068;7.026;2023-07-28T11:31:56;99711.63;;;19.67;64.05
59272;BME280;45043;51.068;7.026;2023-07-28T11:35:05;99706.63;;;19.95;62.74
59272;BME280;45043;51.068;7.026;2023-07-28T11:38:07;99705.22;;;20.13;61.75
59272;BME280;45043;51.068;7.026;2023-07-28T11:41:09;99693.63;;;20.07;61.80
59272;BME280;45043;51.068;7.026;2023-07-28T11:44:09;99691.22;;;20.05;61.88
59272;BME280;45043;51.068;7.026;2023-07-28T11:47:17;99686.03;;;20.19;60.78
59272;BME280;45043;51.068;7.026;2023-07-28T11:50:28;99693.63;;;20.12;60.31
59272;BME280;45043;51.068;7.026;2023-07-28T11:53:32;99696.34;;;20.02;60.15
59272;BME280;45043;51.068;7.026;2023-07-28T11:56:33;99692.66;;;19.87;60.41
59272;BME280;45043;51.068;7.026;2023-07-28T11:59:34;99691.84;;;19.92;61.18
59272;BME280;45043;51.068;7.026;2023-07-28T12:02:35;99686.94;;;19.99;60.49
59272;BME280;45043;51.068;7.026;2023-07-28T12:05:38;99690.13;;;20.12;60.52
59272;BME280;45043;51.068;7.026;2023-07-28T12:08:38;99689.34;;;20.11;60.94
59272;BME280;45043;51.068;7.026;2023-07-28T12:11:43;99681.78;;;20.03;60.83
59272;BME280;45043;51.068;7.026;2023-07-28T12:14:44;99694.50;;;19.97;60.78
59272;BME280;45043;51.068;7.026;2023-07-28T12:21:03;99701.56;;;19.83;59.55
59272;BME280;45043;51.068;7.026;2023-07-28T12:24:04;99697.59;;;19.65;59.91
59272;BME280;45043;51.068;7.026;2023-07-28T12:27:05;99696.59;;;19.46;60.16
59272;BME280;45043;51.068;7.026;2023-07-28T12:30:06;99691.53;;;19.29;59.85
59272;BME280;45043;51.068;7.026;2023-07-28T12:33:09;99690.72;;;19.13;60.36
59272;BME280;45043;51.068;7.026;2023-07-28T12:36:09;99695.88;;;18.99;60.59
59272;BME280;45043;51.068;7.026;2023-07-28T12:39:10;99689.97;;;18.92;60.88
59272;BME280;45043;51.068;7.026;2023-07-28T12:42:11;99700.19;;;18.85;61.26
59272;BME280;45043;51.068;7.026;2023-07-28T12:45:12;99697.22;;;18.76;61.41
59272;BME280;45043;51.068;7.026;2023-07-28T12:48:12;99695.59;;;18.65;61.53
59272;BME280;45043;51.068;7.026;2023-07-28T12:51:13;99701.50;;;18.57;61.71
59272;BME280;45043;51.068;7.026;2023-07-28T12:54:13;99703.94;;;18.48;61.47
59272;BME280;45043;51.068;7.026;2023-07-28T12:57:14;99707.97;;;18.46;62.26
59272;BME280;45043;51.068;7.026;2023-07-28T13:00:14;99703.09;;;18.42;62.58
59272;BME280;45043;51.068;7.026;2023-07-28T13:03:16;99699.88;;;18.51;63.73
59272;BME280;45043;51.068;7.026;2023-07-28T13:06:16;99702.59;;;18.61;64.19
59272;BME280;45043;51.068;7.026;2023-07-28T13:09:17;99710.94;;;18.64;65.47
59272;BME280;45043;51.068;7.026;2023-07-28T13:12:17;99710.41;;;18.62;65.83
59272;BME280;45043;51.068;7.026;2023-07-28T13:15:18;99711.47;;;18.56;66.73
59272;BME280;45043;51.068;7.026;2023-07-28T13:18:18;99716.56;;;18.58;66.05
59272;BME280;45043;51.068;7.026;2023-07-28T13:21:18;99724.13;;;18.56;66.23
59272;BME280;45043;51.068;7.026;2023-07-28T13:24:19;99723.31;;;18.55;65.82
59272;BME280;45043;51.068;7.026;2023-07-28T13:27:19;99728.13;;;18.53;65.95
59272;BME280;45043;51.068;7.026;2023-07-28T13:30:20;99722.22;;;18.51;65.58
59272;BME280;45043;51.068;7.026;2023-07-28T13:33:20;99725.72;;;18.57;66.43
59272;BME280;45043;51.068;7.026;2023-07-28T13:36:21;99719.00;;;18.49;66.56
59272;BME280;45043;51.068;7.026;2023-07-28T13:39:22;99707.94;;;18.51;66.71
59272;BME280;45043;51.068;7.026;2023-07-28T13:42:23;99717.13;;;18.60;67.12
59272;BME280;45043;51.068;7.026;2023-07-28T13:45:24;99721.97;;;18.63;66.67
59272;BME280;45043;51.068;7.026;2023-07-28T13:48:24;99710.16;;;18.74;66.55
59272;BME280;45043;51.068;7.026;2023-07-28T13:51:24;99712.84;;;18.84;66.42
59272;BME280;45043;51.068;7.026;2023-07-28T13:54:25;99707.47;;;18.89;66.30
59272;BME280;45043;51.068;7.026;2023-07-28T13:57:25;99699.63;;;18.98;65.78
59272;BME280;45043;51.068;7.026;2023-07-28T14:00:26;99700.69;;;19.23;65.66
59272;BME280;45043;51.068;7.026;2023-07-28T14:03:26;99697.16;;;19.43;65.00
59272;BME280;45043;51.068;7.026;2023-07-28T14:06:27;99701.97;;;19.51;64.36
59272;BME280;45043;51.068;7.026;2023-07-28T14:09:27;99701.19;;;19.45;64.76
59272;BME280;45043;51.068;7.026;2023-07-28T14:12:28;99695.56;;;19.26;65.03
59272;BME280;45043;51.068;7.026;2023-07-28T14:15:28;99708.81;;;18.92;65.45
59272;BME280;45043;51.068;7.026;2023-07-28T14:18:29;99703.66;;;18.50;65.75
59272;BME280;45043;51.068;7.026;2023-07-28T14:21:29;99709.56;;;18.41;66.16
59272;BME280;45043;51.068;7.026;2023-07-28T14:24:30;99704.72;;;18.49;66.57
59272;BME280;45043;51.068;7.026;2023-07-28T14:27:30;99705.81;;;18.58;65.95
59272;BME280;45043;51.068;7.026;2023-07-28T14:30:30;99704.19;;;18.47;65.96
59272;BME280;45043;51.068;7.026;2023-07-28T14:33:31;99701.50;;;18.36;66.83
59272;BME280;45043;51.068;7.026;2023-07-28T14:36:32;99699.56;;;18.16;67.30
59272;BME280;45043;51.068;7.026;2023-07-28T14:39:35;99694.44;;;18.00;68.75
59272;BME280;45043;51.068;7.026;2023-07-28T14:42:35;99695.22;;;17.95;68.67
59272;BME280;45043;51.068;7.026;2023-07-28T14:45:37;99701.59;;;17.84;69.26
59272;BME280;45043;51.068;7.026;2023-07-28T14:48:38;99705.03;;;17.69;69.98
59272;BME280;45043;51.068;7.026;2023-07-28T14:51:38;99708.16;;;17.51;70.33
59272;BME280;45043;51.068;7.026;2023-07-28T14:54:39;99696.81;;;17.33;71.56
59272;BME280;45043;51.068;7.026;2023-07-28T14:57:39;99704.28;;;17.26;72.02
59272;BME280;45043;51.068;7.026;2023-07-28T15:00:40;99707.19;;;17.19;72.76
59272;BME280;45043;51.068;7.026;2023-07-28T15:03:40;99718.22;;;17.18;72.55
59272;BME280;45043;51.068;7.026;2023-07-28T15:06:41;99718.13;;;17.13;73.28
59272;BME280;45043;51.068;7.026;2023-07-28T15:09:41;99721.28;;;17.05;73.93
59272;BME280;45043;51.068;7.026;2023-07-28T15:12:42;99723.94;;;16.99;74.47
59272;BME280;45043;51.068;7.026;2023-07-28T15:15:44;99728.22;;;16.95;75.34
59272;BME280;45043;51.068;7.026;2023-07-28T15:18:44;99726.28;;;16.91;75.56
59272;BME280;45043;51.068;7.026;2023-07-28T15:21:45;99724.59;;;16.80;75.55
59272;BME280;45043;51.068;7.026;2023-07-28T15:24:46;99732.41;;;16.81;76.08
59272;BME280;45043;51.068;7.026;2023-07-28T15:27:46;99716.81;;;16.78;76.32
59272;BME280;45043;51.068;7.026;2023-07-28T15:30:47;99713.84;;;16.80;76.35
59272;BME280;45043;51.068;7.026;2023-07-28T15:33:49;99718.41;;;16.79;76.73
59272;BME280;45043;51.068;7.026;2023-07-28T15:36:50;99717.25;;;17.02;76.27
59272;BME280;45043;51.068;7.026;2023-07-28T15:39:50;99714.81;;;17.33;75.84
59272;BME280;45043;51.068;7.026;2023-07-28T15:42:51;99699.63;;;17.59;74.46
59272;BME280;45043;51.068;7.026;2023-07-28T15:45:51;99714.47;;;17.77;74.40
59272;BME280;45043;51.068;7.026;2023-07-28T15:48:54;99715.59;;;17.86;73.64
59272;BME280;45043;51.068;7.026;2023-07-28T15:51:55;99709.94;;;17.82;73.12
59272;BME280;45043;51.068;7.026;2023-07-28T15:54:55;99712.09;;;17.90;73.09
59272;BME280;45043;51.068;7.026;2023-07-28T15:57:56;99728.19;;;17.80;73.21
59272;BME280;45043;51.068;7.026;2023-07-28T16:00:56;99722.22;;;17.63;74.01
59272;BME280;45043;51.068;7.026;2023-07-28T16:03:57;99717.00;;;17.41;74.69
59272;BME280;45043;51.068;7.026;2023-07-28T16:06:58;99719.84;;;17.24;75.12
59272;BME280;45043;51.068;7.026;2023-07-28T16:09:59;99737.22;;;17.16;75.14
59272;BME280;45043;51.068;7.026;2023-07-28T16:13:00;99766.44;;;17.13;75.14
59272;BME280;45043;51.068;7.026;2023-07-28T16:16:00;99766.66;;;17.06;75.10
59272;BME280;45043;51.068;7.026;2023-07-28T16:19:01;99750.19;;;16.92;75.07